Time;durP1;ratioP1;P1;durP2;ratioP2;P2;SDS_P1;SDS_P2;PMS_P1;PMS_P2;Temp;Humidity;BMP_temperature;BMP_pressure;BME280_temperature;BME280_humidity;BME280_pressure;Samples;Min_cycle;Max_cycle;Signal;HPM_P1;HPM_P2
2023/04/28 00:01:52;;;;;;;14.43;6.32;;;16.50;57.50;;;;;;5013403;28;20539;-74
2023/04/28 00:04:18;;;;;;;11.23;5.22;;;16.40;57.50;;;;;;5013630;28;20431;-75
2023/04/28 00:06:44;;;;;;;11.27;5.78;;;16.40;57.50;;;;;;5017256;28;20404;-74
2023/04/28 00:09:10;;;;;;;13.93;5.57;;;16.30;57.50;;;;;;5017114;28;20034;-73
2023/04/28 00:11:37;;;;;;;15.32;5.45;;;16.30;57.50;;;;;;5016723;28;20042;-75
2023/04/28 00:14:03;;;;;;;14.45;6.18;;;16.20;57.50;;;;;;5016540;28;20053;-74
2023/04/28 00:16:29;;;;;;;12.23;5.43;;;16.10;57.40;;;;;;5016513;28;20093;-75
2023/04/28 00:18:56;;;;;;;15.60;5.00;;;16.10;57.50;;;;;;5014727;28;20034;-73
2023/04/28 00:21:22;;;;;;;8.50;4.85;;;16.10;57.50;;;;;;5015661;28;20314;-72
2023/04/28 00:23:47;;;;;;;8.57;5.07;;;16.10;57.50;;;;;;5016405;28;20089;-73
2023/04/28 00:26:13;;;;;;;10.35;4.60;;;16.10;57.30;;;;;;5016134;28;20045;-75
2023/04/28 00:28:39;;;;;;;12.73;5.05;;;16.10;57.40;;;;;;5016177;28;20038;-73
2023/04/28 00:31:11;;;;;;;16.80;5.20;;;16.00;57.10;;;;;;5016304;28;20504;-74
2023/04/28 00:33:40;;;;;;;9.25;4.90;;;16.00;57.10;;;;;;5016375;28;20041;-73
2023/04/28 00:36:07;;;;;;;10.02;4.90;;;16.00;58.00;;;;;;5016368;28;20116;-73
2023/04/28 00:38:33;;;;;;;11.02;4.78;;;15.90;57.50;;;;;;5016461;28;20468;-74
2023/04/28 00:40:58;;;;;;;11.85;5.00;;;15.90;57.30;;;;;;5016246;28;20038;-74
2023/04/28 00:43:24;;;;;;;10.18;5.18;;;15.80;57.50;;;;;;5016123;28;20026;-75
2023/04/28 00:45:50;;;;;;;9.63;4.78;;;15.80;57.70;;;;;;5015866;28;20122;-74
2023/04/28 00:48:17;;;;;;;9.57;4.68;;;15.70;57.40;;;;;;5015886;28;20061;-75
2023/04/28 00:50:44;;;;;;;13.80;4.70;;;15.70;57.80;;;;;;5016469;28;20042;-75
2023/04/28 00:53:10;;;;;;;13.95;5.35;;;15.60;57.60;;;;;;5014411;28;20030;-74
2023/04/28 00:55:37;;;;;;;11.45;4.70;;;15.50;57.80;;;;;;5014646;28;20040;-73
2023/04/28 00:58:03;;;;;;;11.18;4.95;;;15.50;58.30;;;;;;5015927;28;20049;-73
2023/04/28 01:00:29;;;;;;;9.73;4.85;;;15.40;58.20;;;;;;5016177;28;20057;-73
2023/04/28 01:02:56;;;;;;;12.48;5.28;;;15.40;58.40;;;;;;5015587;28;20038;-73
2023/04/28 01:05:27;;;;;;;10.48;5.47;;;15.40;58.50;;;;;;5015566;28;20042;-72
2023/04/28 01:07:53;;;;;;;10.52;5.30;;;15.40;58.80;;;;;;5014777;28;20034;-75
2023/04/28 01:10:19;;;;;;;14.85;5.57;;;15.30;58.40;;;;;;5015556;28;20034;-74
2023/04/28 01:12:44;;;;;;;10.98;5.57;;;15.30;59.00;;;;;;5015374;28;20038;-74
2023/04/28 01:15:15;;;;;;;12.73;5.78;;;15.30;58.70;;;;;;5014288;28;20045;-72
2023/04/28 01:17:41;;;;;;;14.50;6.97;;;15.40;58.50;;;;;;5014635;28;20033;-74
2023/04/28 01:20:08;;;;;;;13.55;6.93;;;15.30;58.40;;;;;;5015499;28;20049;-74
2023/04/28 01:22:33;;;;;;;13.63;7.28;;;15.30;59.00;;;;;;5015613;28;20018;-74
2023/04/28 01:24:59;;;;;;;11.02;6.15;;;15.30;58.20;;;;;;5015018;28;20065;-73
2023/04/28 01:27:25;;;;;;;11.30;6.07;;;15.20;58.30;;;;;;5015606;28;20049;-74
2023/04/28 01:29:51;;;;;;;13.15;7.20;;;15.20;58.00;;;;;;5014006;28;20133;-74
2023/04/28 01:32:17;;;;;;;13.38;7.53;;;15.30;58.20;;;;;;5015353;28;20037;-74
2023/04/28 01:34:42;;;;;;;10.80;6.47;;;15.30;58.20;;;;;;5013773;28;20038;-73
2023/04/28 01:37:08;;;;;;;10.38;5.93;;;15.20;58.30;;;;;;5015024;28;20042;-73
2023/04/28 01:39:34;;;;;;;13.00;6.30;;;15.20;58.40;;;;;;5015277;28;20084;-73
2023/04/28 01:42:01;;;;;;;12.32;5.88;;;15.10;58.70;;;;;;5015095;28;20088;-74
2023/04/28 01:44:26;;;;;;;12.65;5.47;;;15.10;58.70;;;;;;5015022;28;20041;-73
2023/04/28 01:46:52;;;;;;;8.50;4.68;;;15.10;58.90;;;;;;5015157;28;20462;-74
2023/04/28 01:49:18;;;;;;;10.15;5.05;;;15.10;58.80;;;;;;5014503;28;20061;-73
2023/04/28 01:51:44;;;;;;;14.95;5.32;;;15.20;58.90;;;;;;5013736;28;20030;-73
2023/04/28 01:54:09;;;;;;;8.85;4.40;;;15.10;58.90;;;;;;5015290;28;20503;-73
2023/04/28 01:56:35;;;;;;;7.82;4.10;;;15.20;59.10;;;;;;5014808;28;20045;-73
2023/04/28 01:59:01;;;;;;;7.70;4.18;;;15.20;58.90;;;;;;5014588;28;20447;-73
2023/04/28 02:01:26;;;;;;;8.57;4.28;;;15.10;58.80;;;;;;5014400;28;20049;-72
2023/04/28 02:03:53;;;;;;;12.10;4.45;;;15.10;58.90;;;;;;5014665;28;20501;-73
2023/04/28 02:06:19;;;;;;;8.65;3.97;;;15.00;59.00;;;;;;5013172;28;20053;-73
2023/04/28 02:08:45;;;;;;;8.90;3.92;;;15.00;59.20;;;;;;5014637;28;20407;-72
2023/04/28 02:11:11;;;;;;;11.32;4.15;;;14.90;59.40;;;;;;5014342;28;20037;-74
2023/04/28 02:13:36;;;;;;;12.52;4.60;;;14.80;59.50;;;;;;5014463;28;20025;-74
2023/04/28 02:16:02;;;;;;;10.55;4.40;;;14.80;59.90;;;;;;5013013;28;20074;-75
2023/04/28 02:18:28;;;;;;;8.90;4.28;;;14.80;59.90;;;;;;5014271;28;20081;-73
2023/04/28 02:20:53;;;;;;;8.52;4.15;;;14.80;59.90;;;;;;5014211;28;20045;-73
2023/04/28 02:23:19;;;;;;;9.18;4.20;;;14.70;60.00;;;;;;5014203;28;20026;-74
2023/04/28 02:25:45;;;;;;;10.13;4.80;;;14.70;59.90;;;;;;5013923;28;20132;-73
2023/04/28 02:28:11;;;;;;;10.65;5.53;;;14.60;59.90;;;;;;5013711;28;20056;-73
2023/04/28 02:30:37;;;;;;;9.85;4.38;;;14.60;59.80;;;;;;5013873;28;20525;-73
2023/04/28 02:33:03;;;;;;;8.30;4.40;;;14.50;59.90;;;;;;5013899;28;20046;-73
2023/04/28 02:35:28;;;;;;;9.10;4.47;;;14.50;59.90;;;;;;5014110;28;20062;-73
2023/04/28 02:37:54;;;;;;;9.40;4.05;;;14.50;60.00;;;;;;5012820;28;20455;-73
2023/04/28 02:40:20;;;;;;;8.30;4.45;;;14.50;60.10;;;;;;5014152;28;20029;-74
2023/04/28 02:42:45;;;;;;;6.40;3.88;;;14.50;60.10;;;;;;5012978;28;20448;-73
2023/04/28 02:45:11;;;;;;;7.35;3.60;;;14.50;60.00;;;;;;5013754;28;20042;-73
2023/04/28 02:47:37;;;;;;;10.40;3.80;;;14.50;60.10;;;;;;5013539;28;20073;-72
2023/04/28 02:50:03;;;;;;;8.95;4.25;;;14.50;60.00;;;;;;5013691;28;20030;-73
2023/04/28 02:52:28;;;;;;;10.02;4.47;;;14.50;60.00;;;;;;5013865;28;20091;-74
2023/04/28 02:54:56;;;;;;;7.78;3.67;;;14.40;60.00;;;;;;5013758;28;20446;-73
2023/04/28 02:57:23;;;;;;;7.95;3.65;;;14.40;60.30;;;;;;5014797;28;20087;-74
2023/04/28 02:59:49;;;;;;;10.73;4.22;;;14.40;60.20;;;;;;5013857;28;20026;-73
2023/04/28 03:02:15;;;;;;;10.40;3.95;;;14.30;60.50;;;;;;5013986;28;20040;-74
2023/04/28 03:04:41;;;;;;;7.88;3.80;;;14.30;61.10;;;;;;5014041;28;20165;-73
2023/04/28 03:07:06;;;;;;;8.38;3.78;;;14.20;61.30;;;;;;5013752;28;20117;-74
2023/04/28 03:09:32;;;;;;;7.18;3.83;;;14.20;62.00;;;;;;5013432;28;20038;-73
2023/04/28 03:11:58;;;;;;;11.93;4.15;;;14.20;62.50;;;;;;5012011;28;20076;-73
2023/04/28 03:14:23;;;;;;;10.00;3.80;;;14.20;62.30;;;;;;5013135;28;20022;-74
2023/04/28 03:16:49;;;;;;;8.30;3.72;;;14.10;62.50;;;;;;5013608;28;20049;-73
2023/04/28 03:19:15;;;;;;;10.38;4.65;;;14.00;62.70;;;;;;5013190;28;20034;-73
2023/04/28 03:21:41;;;;;;;9.20;3.80;;;14.00;63.50;;;;;;5013377;28;20349;-73
2023/04/28 03:24:07;;;;;;;7.35;3.55;;;14.00;64.00;;;;;;5013019;28;20068;-74
2023/04/28 03:26:33;;;;;;;10.35;4.03;;;13.90;64.40;;;;;;5013579;28;20069;-72
2023/04/28 03:28:59;;;;;;;6.90;3.88;;;13.80;64.60;;;;;;5013071;28;20129;-74
2023/04/28 03:31:24;;;;;;;9.00;4.00;;;13.70;64.90;;;;;;5013352;28;20045;-74
2023/04/28 03:33:50;;;;;;;8.30;3.35;;;13.70;65.10;;;;;;5013010;28;20395;-74
2023/04/28 03:36:16;;;;;;;8.27;3.38;;;13.80;64.90;;;;;;5012914;28;20095;-73
2023/04/28 03:38:42;;;;;;;8.30;3.90;;;13.80;65.00;;;;;;5013259;28;20072;-74
2023/04/28 03:41:07;;;;;;;7.28;3.65;;;13.80;65.10;;;;;;5012304;28;20056;-74
2023/04/28 03:43:36;;;;;;;10.63;4.15;;;13.90;65.00;;;;;;5012947;28;20114;-75
2023/04/28 03:46:02;;;;;;;13.10;3.85;;;13.80;65.30;;;;;;5011584;28;20057;-74
2023/04/28 03:48:28;;;;;;;10.02;4.82;;;13.80;65.10;;;;;;5012940;28;20026;-73
2023/04/28 03:50:54;;;;;;;7.35;3.92;;;13.80;65.20;;;;;;5012437;28;20037;-75
2023/04/28 03:53:19;;;;;;;12.98;4.07;;;13.80;65.20;;;;;;5012887;28;20030;-74
2023/04/28 03:55:45;;;;;;;8.65;4.25;;;13.80;65.50;;;;;;5012705;28;20113;-75
2023/04/28 03:58:11;;;;;;;12.45;4.10;;;13.80;65.30;;;;;;5012786;28;20038;-75
2023/04/28 04:00:36;;;;;;;11.50;5.07;;;13.80;65.20;;;;;;5012775;28;20026;-74
2023/04/28 04:03:02;;;;;;;11.13;4.07;;;13.70;65.10;;;;;;5011515;28;20492;-73
2023/04/28 04:05:28;;;;;;;8.88;3.90;;;13.80;65.00;;;;;;5012711;28;20046;-74
2023/04/28 04:07:54;;;;;;;15.23;3.88;;;13.70;65.30;;;;;;5012671;28;20044;-74
2023/04/28 04:10:19;;;;;;;8.95;3.72;;;13.70;65.10;;;;;;5012689;28;20030;-73
2023/04/28 04:12:45;;;;;;;14.10;3.53;;;13.70;65.10;;;;;;5011346;28;20038;-72
2023/04/28 04:15:11;;;;;;;7.50;3.53;;;13.70;64.90;;;;;;5012540;28;20113;-73
2023/04/28 04:17:37;;;;;;;8.05;3.92;;;13.60;64.90;;;;;;5012629;28;20427;-74
2023/04/28 04:20:03;;;;;;;5.75;3.28;;;13.60;65.00;;;;;;5011260;28;20026;-74
2023/04/28 04:22:29;;;;;;;8.45;4.28;;;13.70;65.10;;;;;;5012394;28;20066;-72
2023/04/28 04:24:55;;;;;;;6.50;3.63;;;13.60;64.80;;;;;;5012250;28;20451;-73
2023/04/28 04:27:20;;;;;;;9.38;3.80;;;13.60;64.60;;;;;;5012500;28;20034;-74
2023/04/28 04:29:46;;;;;;;9.43;4.57;;;13.60;64.50;;;;;;5011105;28;20439;-74
2023/04/28 04:32:12;;;;;;;8.65;4.00;;;13.70;64.70;;;;;;5012219;28;20038;-74
2023/04/28 04:34:37;;;;;;;8.82;4.10;;;13.60;64.10;;;;;;5012488;28;20538;-71
2023/04/28 04:37:03;;;;;;;9.10;4.40;;;13.70;64.40;;;;;;5012365;28;20030;-73
2023/04/28 04:39:29;;;;;;;9.27;3.85;;;13.70;64.30;;;;;;5012242;28;20112;-72
2023/04/28 04:41:54;;;;;;;8.57;3.78;;;13.70;65.00;;;;;;5011032;28;20057;-73
2023/04/28 04:44:20;;;;;;;13.05;4.50;;;13.70;64.40;;;;;;5012083;28;20152;-74
2023/04/28 04:46:46;;;;;;;9.00;4.20;;;13.70;64.30;;;;;;5012187;28;20042;-74
2023/04/28 04:49:12;;;;;;;10.73;4.47;;;13.80;64.40;;;;;;5011949;28;20034;-72
2023/04/28 04:51:38;;;;;;;9.55;3.85;;;13.80;64.00;;;;;;5012170;28;20038;-74
2023/04/28 04:54:04;;;;;;;12.82;4.35;;;13.90;64.10;;;;;;5015760;28;20026;-74
2023/04/28 04:56:30;;;;;;;13.60;5.28;;;13.90;64.10;;;;;;5014272;28;20066;-74
2023/04/28 04:58:56;;;;;;;8.90;4.20;;;13.90;64.00;;;;;;5015502;28;20498;-73
2023/04/28 05:01:22;;;;;;;10.02;4.35;;;13.90;63.80;;;;;;5015465;28;20097;-73
2023/04/28 05:03:47;;;;;;;11.90;5.30;;;13.90;64.10;;;;;;5015521;28;20068;-72
2023/04/28 05:06:13;;;;;;;12.05;5.53;;;13.90;64.30;;;;;;5015455;28;20103;-74
2023/04/28 05:08:39;;;;;;;9.75;3.90;;;13.90;64.00;;;;;;5015438;28;20448;-73
2023/04/28 05:11:04;;;;;;;12.15;3.67;;;13.90;64.00;;;;;;5014405;28;20034;-73
2023/04/28 05:13:30;;;;;;;7.13;3.72;;;13.90;63.90;;;;;;5014175;28;20484;-72
2023/04/28 05:15:56;;;;;;;7.70;4.10;;;13.90;63.80;;;;;;5015537;28;20034;-74
2023/04/28 05:18:22;;;;;;;11.55;4.03;;;13.90;63.50;;;;;;5013997;28;20069;-73
2023/04/28 05:20:47;;;;;;;13.13;4.40;;;13.90;63.40;;;;;;5015505;28;20478;-74
2023/04/28 05:23:13;;;;;;;9.93;3.80;;;14.00;63.10;;;;;;5015251;28;20036;-74
2023/04/28 05:25:39;;;;;;;12.25;3.95;;;14.10;62.90;;;;;;5013845;28;20046;-72
2023/04/28 05:28:07;;;;;;;12.20;4.45;;;14.10;62.80;;;;;;5015150;28;20095;-75
2023/04/28 05:30:33;;;;;;;12.25;4.97;;;14.20;62.60;;;;;;5015083;28;20491;-75
2023/04/28 05:32:59;;;;;;;13.88;4.03;;;14.30;62.50;;;;;;5014826;28;20049;-74
2023/04/28 05:35:25;;;;;;;10.48;3.95;;;14.50;62.30;;;;;;5014667;28;20046;-74
2023/04/28 05:37:51;;;;;;;11.50;4.20;;;14.50;61.90;;;;;;5014859;28;20062;-74
2023/04/28 05:40:16;;;;;;;10.15;4.15;;;14.70;61.60;;;;;;5015057;28;20057;-74
2023/04/28 05:42:42;;;;;;;9.80;4.57;;;14.90;61.00;;;;;;5015144;28;20100;-76
2023/04/28 05:45:08;;;;;;;12.45;4.57;;;15.00;60.00;;;;;;5014668;28;20053;-75
2023/04/28 05:47:34;;;;;;;12.52;4.35;;;15.10;59.70;;;;;;5015366;28;20036;-74
2023/04/28 05:50:00;;;;;;;9.07;4.57;;;15.20;59.50;;;;;;5015063;28;20038;-74
2023/04/28 05:52:26;;;;;;;9.18;4.57;;;15.50;59.20;;;;;;5015515;28;20452;-75
2023/04/28 05:54:52;;;;;;;13.40;4.55;;;15.80;58.60;;;;;;5015234;28;20507;-75
2023/04/28 05:57:17;;;;;;;8.55;4.63;;;16.10;57.50;;;;;;5014679;28;20061;-75
2023/04/28 05:59:43;;;;;;;8.88;4.50;;;16.30;55.90;;;;;;5014748;28;20038;-75
2023/04/28 06:02:09;;;;;;;11.25;4.93;;;16.50;56.00;;;;;;5014556;28;20033;-75
2023/04/28 06:04:35;;;;;;;12.18;4.75;;;16.80;55.70;;;;;;5013744;28;20529;-75
2023/04/28 06:07:00;;;;;;;13.07;4.93;;;16.90;54.50;;;;;;5015426;28;20049;-76
2023/04/28 06:09:26;;;;;;;15.60;4.57;;;17.20;54.70;;;;;;5018303;28;20480;-75
2023/04/28 06:11:52;;;;;;;11.00;4.97;;;17.40;54.00;;;;;;5015468;28;20168;-74
2023/04/28 06:14:17;;;;;;;13.45;5.03;;;17.60;53.30;;;;;;5012779;28;20450;-75
2023/04/28 06:16:43;;;;;;;12.48;4.47;;;17.70;52.60;;;;;;5014596;28;20068;-73
2023/04/28 06:19:09;;;;;;;9.32;4.03;;;17.90;52.40;;;;;;5014087;28;20120;-74
2023/04/28 06:21:35;;;;;;;18.13;4.65;;;17.90;51.80;;;;;;5012540;28;20124;-76
2023/04/28 06:24:01;;;;;;;14.13;4.40;;;18.10;52.10;;;;;;5014217;28;20053;-75
2023/04/28 06:26:27;;;;;;;10.68;4.50;;;18.10;51.70;;;;;;5013581;28;20041;-73
2023/04/28 06:28:53;;;;;;;14.95;4.60;;;18.30;51.60;;;;;;5013354;28;20073;-74
2023/04/28 06:31:18;;;;;;;13.43;4.47;;;18.50;51.40;;;;;;5013538;28;20080;-75
2023/04/28 06:33:44;;;;;;;11.05;4.03;;;18.60;51.00;;;;;;5013428;28;20034;-74
2023/04/28 06:36:12;;;;;;;14.48;4.75;;;18.70;50.90;;;;;;5013534;28;20034;-74
2023/04/28 06:38:40;;;;;;;13.05;4.90;;;18.80;50.50;;;;;;5013474;28;20479;-74
2023/04/28 06:41:05;;;;;;;13.13;4.90;;;19.00;50.60;;;;;;5013205;28;20488;-73
2023/04/28 06:43:32;;;;;;;12.90;5.35;;;19.10;49.90;;;;;;5013065;28;20065;-75
2023/04/28 06:45:58;;;;;;;22.15;4.88;;;19.20;50.20;;;;;;5013100;28;20038;-76
2023/04/28 06:48:24;;;;;;;14.48;4.65;;;19.30;49.90;;;;;;5013781;28;20403;-74
2023/04/28 06:50:50;;;;;;;10.52;4.68;;;19.40;49.50;;;;;;5014204;28;20037;-72
2023/04/28 06:53:16;;;;;;;15.10;4.80;;;19.40;49.10;;;;;;5013299;28;20034;-70
2023/04/28 06:55:42;;;;;;;19.73;4.85;;;19.50;49.10;;;;;;5012967;28;20045;-74
2023/04/28 06:58:07;;;;;;;15.95;5.10;;;19.60;49.10;;;;;;5013389;28;20510;-72
2023/04/28 07:00:34;;;;;;;12.20;4.40;;;19.70;49.10;;;;;;5012991;28;20034;-72
2023/04/28 07:03:00;;;;;;;15.25;4.47;;;19.60;48.80;;;;;;5013467;28;20412;-73
2023/04/28 07:05:26;;;;;;;13.48;4.60;;;19.70;49.00;;;;;;5011421;28;20608;-77
2023/04/28 07:07:52;;;;;;;13.10;4.38;;;19.80;48.90;;;;;;5012728;28;20031;-76
2023/04/28 07:10:18;;;;;;;14.35;4.13;;;19.90;48.50;;;;;;5012200;28;20034;-75
2023/04/28 07:12:44;;;;;;;13.80;4.30;;;20.00;48.70;;;;;;5012623;28;20439;-73
2023/04/28 07:15:10;;;;;;;12.85;4.53;;;20.00;48.50;;;;;;5011960;28;20495;-72
2023/04/28 07:17:36;;;;;;;14.38;4.18;;;20.10;48.10;;;;;;5012013;28;20169;-73
2023/04/28 07:20:03;;;;;;;11.13;3.78;;;20.10;48.40;;;;;;5012192;28;20547;-73
2023/04/28 07:22:28;;;;;;;10.75;3.90;;;20.20;47.90;;;;;;5012603;28;20030;-72
2023/04/28 07:24:54;;;;;;;9.45;3.70;;;20.30;48.20;;;;;;5012114;28;20048;-72
2023/04/28 07:27:20;;;;;;;9.80;3.50;;;20.30;47.50;;;;;;5012461;28;20034;-72
2023/04/28 07:29:45;;;;;;;7.57;3.90;;;20.30;47.30;;;;;;5012295;28;20124;-73
2023/04/28 07:32:11;;;;;;;10.00;3.42;;;20.30;47.00;;;;;;5012518;28;20031;-72
2023/04/28 07:34:37;;;;;;;9.63;3.78;;;20.40;47.60;;;;;;5012418;28;20030;-71
2023/04/28 07:37:03;;;;;;;8.93;3.67;;;20.50;47.50;;;;;;5012722;28;20575;-71
2023/04/28 07:39:33;;;;;;;8.25;4.22;;;20.70;47.60;;;;;;5012577;28;20034;-73
2023/04/28 07:42:00;;;;;;;12.88;4.03;;;20.70;47.00;;;;;;5012338;28;20033;-73
2023/04/28 07:44:25;;;;;;;7.97;3.45;;;20.80;47.30;;;;;;5012376;28;20088;-73
2023/04/28 07:46:52;;;;;;;8.95;3.50;;;21.00;47.00;;;;;;5012674;28;20088;-73
2023/04/28 07:49:18;;;;;;;11.55;4.03;;;21.00;46.90;;;;;;5012434;28;20081;-73
2023/04/28 07:51:43;;;;;;;7.80;2.90;;;21.10;46.60;;;;;;5012588;28;20041;-73
2023/04/28 07:54:09;;;;;;;8.20;2.75;;;21.10;44.80;;;;;;5012488;28;20057;-74
2023/04/28 07:56:35;;;;;;;8.05;2.60;;;21.10;44.10;;;;;;5011264;28;20033;-73
2023/04/28 07:59:01;;;;;;;8.35;3.28;;;21.00;43.20;;;;;;5012475;28;20065;-72
2023/04/28 08:01:26;;;;;;;11.88;3.55;;;21.00;43.10;;;;;;5012261;28;20041;-72
2023/04/28 08:03:52;;;;;;;17.48;3.60;;;21.10;43.40;;;;;;5012190;28;20025;-73
2023/04/28 08:06:19;;;;;;;13.63;4.10;;;21.20;43.60;;;;;;5011166;28;20128;-73
2023/04/28 08:08:44;;;;;;;11.05;3.30;;;21.20;43.40;;;;;;5012074;28;20053;-73
2023/04/28 08:11:10;;;;;;;10.23;3.33;;;21.20;43.40;;;;;;5012406;28;20113;-72
2023/04/28 08:13:36;;;;;;;7.22;2.38;;;21.20;43.60;;;;;;5012104;28;20072;-73
2023/04/28 08:16:02;;;;;;;6.38;2.55;;;21.00;42.80;;;;;;5012482;28;20037;-73
2023/04/28 08:18:28;;;;;;;9.02;3.03;;;21.00;43.10;;;;;;5012365;28;20034;-72
2023/04/28 08:20:54;;;;;;;6.93;2.67;;;20.90;42.70;;;;;;5011902;28;20034;-73
2023/04/28 08:23:20;;;;;;;14.20;3.50;;;20.90;43.10;;;;;;5010846;28;20037;-72
2023/04/28 08:25:46;;;;;;;9.52;3.63;;;20.80;43.30;;;;;;5012433;28;20502;-71
2023/04/28 08:28:12;;;;;;;9.70;3.67;;;20.90;43.30;;;;;;5015672;28;20032;-71
2023/04/28 08:30:38;;;;;;;7.97;3.30;;;20.90;42.60;;;;;;5014443;28;20046;-71
2023/04/28 08:33:04;;;;;;;6.45;2.83;;;20.90;42.60;;;;;;5015946;28;20037;-72
2023/04/28 08:35:30;;;;;;;10.43;2.53;;;20.90;42.40;;;;;;5015665;28;20431;-72
2023/04/28 08:37:55;;;;;;;8.48;2.60;;;20.80;42.50;;;;;;5015847;28;20060;-72
2023/04/28 08:40:23;;;;;;;8.98;3.20;;;20.80;42.90;;;;;;5015954;28;20088;-72
2023/04/28 08:42:49;;;;;;;9.68;3.58;;;20.80;43.30;;;;;;5016164;28;20042;-72
2023/04/28 08:45:15;;;;;;;11.27;3.53;;;20.80;43.10;;;;;;5015774;28;20114;-71
2023/04/28 08:47:44;;;;;;;7.90;3.40;;;20.90;43.20;;;;;;5015529;28;20037;-72
2023/04/28 08:50:11;;;;;;;8.07;3.28;;;20.90;43.10;;;;;;5015890;28;20371;-72
2023/04/28 08:52:38;;;;;;;9.32;2.92;;;21.00;43.20;;;;;;5015543;28;20044;-72
2023/04/28 08:55:09;;;;;;;11.23;3.20;;;21.00;42.90;;;;;;5015171;28;20487;-71
2023/04/28 08:57:47;;;;;;;14.80;2.75;;;21.00;42.80;;;;;;5017052;28;20030;-72
2023/04/28 09:00:13;;;;;;;8.13;2.65;;;21.10;42.80;;;;;;5018603;28;20123;-73
2023/04/28 09:02:42;;;;;;;6.72;2.40;;;21.00;42.90;;;;;;5016050;28;20511;-73
2023/04/28 09:05:10;;;;;;;5.35;2.42;;;21.00;43.00;;;;;;5015357;28;20108;-71
2023/04/28 09:07:36;;;;;;;7.38;2.72;;;21.00;43.70;;;;;;5015406;28;20121;-73
2023/04/28 09:10:20;;;;;;;7.32;2.78;;;21.10;43.70;;;;;;5015317;28;20073;-72
2023/04/28 09:12:46;;;;;;;;;;;21.10;43.90;;;;;;5015275;28;20034;-72
2023/04/28 09:15:29;;;;;;;4.90;2.42;;;21.10;44.20;;;;;;5014948;28;19916;-73
2023/04/28 09:17:55;;;;;;;7.00;1.80;;;21.20;42.50;;;;;;5014873;28;20026;-72
2023/04/28 09:20:25;;;;;;;8.07;2.00;;;21.20;43.30;;;;;;5014901;28;20164;-73
2023/04/28 09:22:53;;;;;;;5.50;1.95;;;21.30;42.60;;;;;;5015038;28;20041;-72
2023/04/28 09:25:23;;;;;;;7.47;1.90;;;21.30;41.30;;;;;;5014709;28;20124;-72
2023/04/28 09:27:49;;;;;;;4.95;1.60;;;21.30;40.50;;;;;;5014845;28;20038;-74
2023/04/28 09:30:15;;;;;;;8.18;1.90;;;21.30;39.50;;;;;;5012972;28;20045;-73
2023/04/28 09:32:41;;;;;;;6.13;1.70;;;21.40;39.50;;;;;;5014803;28;20034;-73
2023/04/28 09:35:07;;;;;;;6.88;1.70;;;21.40;39.00;;;;;;5014665;28;20057;-72
2023/04/28 09:37:34;;;;;;;3.30;1.48;;;21.50;37.90;;;;;;5013894;28;20026;-72
2023/04/28 09:40:08;;;;;;;3.15;1.13;;;21.60;38.00;;;;;;5014955;28;20169;-74
2023/04/28 09:42:37;;;;;;;15.00;1.60;;;21.60;37.30;;;;;;5015006;28;20045;-72
2023/04/28 09:45:10;;;;;;;9.13;1.98;;;21.60;37.30;;;;;;5014725;28;20050;-72
2023/04/28 09:47:40;;;;;;;11.60;1.90;;;21.70;37.40;;;;;;5014776;28;20068;-73
2023/04/28 09:50:13;;;;;;;8.05;1.70;;;21.70;37.50;;;;;;5014776;28;20265;-72
2023/04/28 09:52:40;;;;;;;8.55;1.98;;;21.80;37.80;;;;;;5013114;28;20124;-72
2023/04/28 09:55:07;;;;;;;6.68;2.50;;;21.80;37.80;;;;;;5014734;28;20113;-72
2023/04/28 09:57:34;;;;;;;7.93;1.73;;;21.90;37.70;;;;;;5014269;28;20034;-72
2023/04/28 10:00:04;;;;;;;4.60;1.70;;;21.90;38.40;;;;;;5013173;28;20455;-74
2023/04/28 10:02:31;;;;;;;4.85;1.50;;;22.00;37.90;;;;;;5014794;28;20042;-72
2023/04/28 10:04:57;;;;;;;8.32;1.35;;;22.00;37.80;;;;;;5014515;28;20505;-72
2023/04/28 10:07:23;;;;;;;14.35;1.95;;;22.10;37.30;;;;;;5012969;28;20044;-74
2023/04/28 10:09:52;;;;;;;4.35;1.70;;;22.10;37.50;;;;;;5014462;28;20048;-72
2023/04/28 10:12:20;;;;;;;5.25;1.30;;;22.10;37.60;;;;;;5012527;28;20041;-73
2023/04/28 10:14:53;;;;;;;3.05;1.30;;;22.10;37.10;;;;;;5014142;28;20038;-72
2023/04/28 10:17:20;;;;;;;4.27;1.13;;;22.10;37.10;;;;;;5013848;28;20495;-73
2023/04/28 10:19:49;;;;;;;5.20;1.50;;;22.20;37.10;;;;;;5014023;28;20432;-73
2023/04/28 10:22:22;;;;;;;4.80;1.58;;;22.20;37.20;;;;;;5014061;28;20030;-73
2023/04/28 10:25:00;;;;;;;5.22;1.40;;;22.20;37.20;;;;;;5013900;28;20038;-73
2023/04/28 10:27:30;;;;;;;3.35;1.48;;;22.30;35.60;;;;;;5013909;28;20041;-73
2023/04/28 10:30:20;;;;;;;2.45;1.35;;;22.30;36.80;;;;;;5013667;28;20081;-72
2023/04/28 10:32:46;;;;;;;4.32;1.52;;;22.30;35.50;;;;;;5014053;28;20148;-72
2023/04/28 10:35:24;;;;;;;5.03;1.00;;;22.40;36.60;;;;;;5013465;28;20033;-73
2023/04/28 10:38:13;;;;;;;3.72;1.30;;;22.40;35.80;;;;;;5013818;28;20475;-73
2023/04/28 10:40:43;;;;;;;9.38;1.83;;;22.50;35.60;;;;;;5013793;28;20097;-73
2023/04/28 10:43:33;;;;;;;4.45;1.67;;;22.50;35.90;;;;;;5013770;28;20069;-73
2023/04/28 10:46:00;;;;;;;5.10;1.52;;;22.60;36.00;;;;;;5012820;28;20490;-73
2023/04/28 10:48:25;;;;;;;4.07;1.30;;;22.70;36.00;;;;;;5013477;28;20121;-71
2023/04/28 10:51:06;;;;;;;10.18;4.10;;;22.80;36.30;;;;;;5013532;28;20444;-74
2023/04/28 10:53:41;;;;;;;6.63;2.50;;;22.90;36.50;;;;;;5013635;28;20038;-73
2023/04/28 10:56:07;;;;;;;4.65;2.13;;;23.00;36.00;;;;;;5013444;28;20033;-73
2023/04/28 10:58:35;;;;;;;8.00;2.22;;;23.00;35.50;;;;;;5013288;28;20345;-73
2023/04/28 11:01:22;;;;;;;7.80;2.00;;;23.10;36.40;;;;;;5013140;28;20030;-73
2023/04/28 11:04:06;;;;;;;3.28;1.48;;;23.10;36.70;;;;;;5013427;28;20037;-72
2023/04/28 11:06:38;;;;;;;5.07;1.80;;;23.20;35.50;;;;;;5012973;28;20129;-74
2023/04/28 11:09:19;;;;;;;2.83;1.45;;;23.30;35.70;;;;;;5012985;28;20037;-72
2023/04/28 11:12:04;;;;;;;3.90;1.20;;;23.30;35.90;;;;;;5013070;28;20030;-71
2023/04/28 11:14:34;;;;;;;7.00;1.33;;;23.30;35.10;;;;;;5013172;28;20068;-73
2023/04/28 11:17:12;;;;;;;3.67;1.00;;;23.30;36.10;;;;;;5013223;28;20041;-72
2023/04/28 11:19:47;;;;;;;3.78;1.20;;;23.30;35.70;;;;;;5011611;28;20423;-73
2023/04/28 11:22:20;;;;;;;18.90;13.75;;;23.40;35.50;;;;;;5013283;28;20041;-74
2023/04/28 11:24:57;;;;;;;6.88;1.73;;;23.40;34.40;;;;;;5013321;28;20050;-73
2023/04/28 11:27:27;;;;;;;4.85;1.40;;;23.50;35.60;;;;;;5013544;28;20073;-74
2023/04/28 11:29:53;;;;;;;5.32;1.30;;;23.60;35.30;;;;;;5013095;28;20069;-74
2023/04/28 11:32:30;;;;;;;6.75;1.23;;;23.60;34.80;;;;;;5013243;28;20117;-74
2023/04/28 11:34:56;;;;;;;3.42;1.00;;;23.70;34.00;;;;;;5011350;28;20491;-73
2023/04/28 11:37:21;;;;;;;4.72;1.35;;;23.70;34.60;;;;;;5013107;28;20026;-75
2023/04/28 11:39:48;;;;;;;6.05;1.30;;;23.70;34.00;;;;;;5012924;28;20084;-74
2023/04/28 11:42:13;;;;;;;5.70;1.80;;;23.80;33.90;;;;;;5012822;28;20026;-72
2023/04/28 11:44:39;;;;;;;4.18;1.15;;;23.90;34.20;;;;;;5012393;28;20038;-72
2023/04/28 11:47:06;;;;;;;5.22;1.35;;;24.00;34.10;;;;;;5012774;28;20053;-75
2023/04/28 11:49:44;;;;;;;3.58;1.10;;;24.00;33.10;;;;;;5012909;28;20061;-72
2023/04/28 11:52:10;;;;;;;3.53;1.35;;;24.00;33.00;;;;;;5012589;28;20109;-72
2023/04/28 11:54:37;;;;;;;3.65;1.25;;;24.00;32.80;;;;;;5012652;28;20081;-72
2023/04/28 11:57:03;;;;;;;8.43;1.30;;;24.10;32.10;;;;;;5011324;28;20038;-71
2023/04/28 11:59:32;;;;;;;5.90;1.30;;;24.10;32.10;;;;;;5012831;28;20030;-73
2023/04/28 12:02:03;;;;;;;6.20;1.48;;;24.20;32.00;;;;;;5017237;28;20026;-72
2023/04/28 12:04:36;;;;;;;4.68;1.65;;;24.20;31.50;;;;;;5018893;28;20162;-73
2023/04/28 12:07:14;;;;;;;6.05;1.63;;;24.20;31.90;;;;;;5018939;28;20042;-73
2023/04/28 12:09:47;;;;;;;4.32;1.60;;;24.20;31.80;;;;;;5019280;28;20430;-72
2023/04/28 12:12:29;;;;;;;;;;;24.40;32.10;;;;;;5019297;28;20030;-74
2023/04/28 12:15:06;;;;;;;4.53;1.30;;;24.50;31.80;;;;;;5019218;28;19905;-72
2023/04/28 12:17:38;;;;;;;4.80;1.33;;;24.60;32.10;;;;;;5018854;28;20044;-72
2023/04/28 12:20:06;;;;;;;3.28;1.10;;;24.70;32.60;;;;;;5018923;28;20140;-74
2023/04/28 12:22:46;;;;;;;8.70;1.25;;;24.80;32.00;;;;;;5019074;28;20037;-73
2023/04/28 12:25:15;;;;;;;4.20;1.30;;;24.90;31.40;;;;;;5018781;28;20054;-73
2023/04/28 12:27:57;;;;;;;4.70;1.02;;;25.00;32.10;;;;;;5018837;28;20033;-74
2023/04/28 12:30:24;;;;;;;5.97;1.33;;;25.00;31.30;;;;;;5019265;28;20092;-73
2023/04/28 12:32:50;;;;;;;5.82;1.80;;;25.10;30.70;;;;;;5018037;28;20092;-74
2023/04/28 12:35:16;;;;;;;6.43;1.63;;;25.10;30.20;;;;;;5018211;28;20092;-74
2023/04/28 12:37:43;;;;;;;2.88;1.00;;;25.10;29.80;;;;;;5018690;28;20493;-73
2023/04/28 12:40:09;;;;;;;5.13;1.70;;;25.10;29.90;;;;;;5018722;28;20088;-72
2023/04/28 12:42:35;;;;;;;4.45;1.40;;;25.20;30.00;;;;;;5018863;28;20034;-74
2023/04/28 12:45:01;;;;;;;4.35;1.35;;;25.20;30.00;;;;;;5020829;28;20037;-73